»·PEaware :: N140SW KAJO-KVCV

N140SW :: KAJO-KVCV

FLIGHT INFORMATION

Flight Status: Arrived
Operator: Privately registered:
United States
More flights under this callsign
Pilot: Brad G. (30387)
Aircraft: PIAGGIO P-180 AVANTI
(P180)
More flights by this aircraft type
Origin: KAJO Corona Mun
United States
Destination: KVCV Socal Logistics
United States
More flights between these airports :: More routes between these airports
Route: +PDZ V442 APLES
File this flight plan on PilotEdge
Remarks: REQUEST ODP FOR PRACTICE I-11
Altitude:
(Current/Filed)
11,000ft
Speed:
(Current/Filed)
230kts
Departed: 02-Oct-20 11:35 AM
Arrived: 02-Oct-20 12:29 PM
Distance/Time
Traveled:
43nm/0:54
Distance/Time
To Go:
Arrived

Flight Plot

Page will automatically refresh every two minutes.


Map Options




Map Legend


Flown Route
Filed Route
Departure Airport
Arrival Airport
Navaid (VOR, NDB)
Fix

Horizontal Profiles

Position Reports

Time Latitude Longitude Heading Altitude Ground
Speed
02-Oct-20 11:21 33.896582 -117.607500 5 538ft 0kts
02-Oct-20 11:22 33.896582 -117.607500 5 538ft 0kts
02-Oct-20 11:23 33.896582 -117.607500 5 538ft 0kts
02-Oct-20 11:24 33.896582 -117.607500 5 538ft 0kts
02-Oct-20 11:25 33.896582 -117.607500 5 538ft 0kts
02-Oct-20 11:26 33.896582 -117.607500 5 538ft 0kts
02-Oct-20 11:27 33.896582 -117.607500 5 538ft 0kts
02-Oct-20 11:28 33.896582 -117.607500 5 538ft 0kts
02-Oct-20 11:29 33.896582 -117.607500 5 538ft 0kts
02-Oct-20 11:30 33.896582 -117.607500 5 538ft 0kts
02-Oct-20 11:31 33.896582 -117.607500 5 538ft 0kts
02-Oct-20 11:32 33.897032 -117.607461 3 538ft 0kts
02-Oct-20 11:33 33.897390 -117.607442 3 538ft 4kts
02-Oct-20 11:34 33.897643 -117.602888 85 538ft 102kts
02-Oct-20 11:35 33.907525 -117.557160 64 1964ft 167kts
02-Oct-20 11:36 33.933814 -117.511006 43 3103ft 170kts
02-Oct-20 11:37 33.972147 -117.485771 324 4309ft 181kts
02-Oct-20 11:38 33.953473 -117.522989 176 6005ft 184kts
02-Oct-20 11:39 33.913416 -117.545788 273 6006ft 180kts
02-Oct-20 11:40 33.949676 -117.551788 42 6005ft 176kts
02-Oct-20 11:41 33.982881 -117.508746 70 6003ft 177kts
02-Oct-20 11:42 33.951007 -117.487499 231 5196ft 189kts
02-Oct-20 11:43 33.936303 -117.546791 255 2973ft 186kts
02-Oct-20 11:44 33.924486 -117.603154 256 2037ft 157kts
02-Oct-20 11:45 33.907941 -117.644086 171 1740ft 153kts
02-Oct-20 11:46 33.891838 -117.607750 128 1280ft 113kts
02-Oct-20 11:47 33.887671 -117.575062 359 2003ft 139kts
02-Oct-20 11:48 33.897361 -117.611389 270 841ft 147kts
02-Oct-20 11:54 33.897019 -117.607295 3 538ft 0kts
02-Oct-20 11:55 33.897019 -117.607295 3 538ft 0kts
02-Oct-20 11:56 33.897019 -117.607295 3 538ft 0kts
02-Oct-20 11:57 33.897019 -117.607295 3 538ft 0kts
02-Oct-20 11:58 33.897158 -117.607337 343 538ft 0kts
02-Oct-20 11:59 33.897158 -117.607337 343 538ft 0kts
02-Oct-20 12:00 33.897158 -117.607337 343 538ft 0kts
02-Oct-20 12:01 33.897158 -117.607337 343 538ft 0kts
02-Oct-20 12:02 33.897620 -117.607053 86 538ft 18kts
02-Oct-20 12:03 33.905711 -117.566023 65 1531ft 156kts
02-Oct-20 12:04 33.926950 -117.519250 44 2852ft 178kts
02-Oct-20 12:05 33.963490 -117.484706 356 5890ft 175kts
02-Oct-20 12:06 33.960947 -117.523568 183 6039ft 183kts
02-Oct-20 12:07 33.914634 -117.536733 247 5952ft 182kts
02-Oct-20 12:08 33.944761 -117.558395 34 7354ft 178kts
02-Oct-20 12:09 33.983164 -117.520369 39 10791ft 183kts
02-Oct-20 12:10 34.028250 -117.470252 37 12331ft 243kts
02-Oct-20 12:11 34.087170 -117.428907 27 15016ft 252kts
02-Oct-20 12:12 34.159560 -117.385936 28 13402ft 296kts
02-Oct-20 12:13 34.231355 -117.340418 26 11070ft 277kts
02-Oct-20 12:14 34.300518 -117.300145 26 11057ft 270kts
02-Oct-20 12:15 34.367386 -117.259774 27 11085ft 269kts
02-Oct-20 12:16 34.434376 -117.219137 27 11082ft 268kts
02-Oct-20 12:17 34.500387 -117.179037 27 11079ft 257kts
02-Oct-20 12:18 34.565636 -117.147009 11 10375ft 258kts
02-Oct-20 12:19 34.634472 -117.148919 349 8907ft 259kts
02-Oct-20 12:20 34.706000 -117.184795 326 6448ft 246kts
02-Oct-20 12:21 34.754815 -117.239299 308 6588ft 227kts
02-Oct-20 12:22 34.784738 -117.303931 291 6175ft 214kts
02-Oct-20 12:23 34.782389 -117.364702 224 5183ft 175kts
02-Oct-20 12:24 34.737093 -117.377270 184 4316ft 170kts
02-Oct-20 12:25 34.692361 -117.387509 182 3873ft 151kts
02-Oct-20 12:26 34.652741 -117.386918 179 3588ft 144kts
02-Oct-20 12:27 34.617990 -117.386732 179 2822ft 99kts
02-Oct-20 12:28 34.610562 -117.385557 91 2828ft 1kts
02-Oct-20 12:29 34.609387 -117.384166 179 2831ft 14kts
02-Oct-20 12:30 34.603558 -117.384120 178 2839ft 23kts
02-Oct-20 12:31 34.597437 -117.384050 180 2851ft 22kts
02-Oct-20 12:32 34.592840 -117.381517 134 2860ft 24kts
02-Oct-20 12:33 34.589445 -117.377054 82 2870ft 15kts
02-Oct-20 12:34 34.589185 -117.376230 131 2870ft 0kts

Navigation Log

Ident Type
Flight plan parsing failed, navigation log unavailable